sensor_id;sensor_type;location;lat;lon;timestamp;pressure;altitude;pressure_sealevel;temperature;humidity
34983;BME280;21187;50.976;13.720;2023-05-03T00:04:46;99228.06;;;12.66;46.56
34983;BME280;21187;50.976;13.720;2023-05-03T00:09:49;99230.31;;;12.64;46.74
34983;BME280;21187;50.976;13.720;2023-05-03T00:14:51;99226.50;;;12.65;46.42
34983;BME280;21187;50.976;13.720;2023-05-03T00:19:53;99227.16;;;12.62;46.45
34983;BME280;21187;50.976;13.720;2023-05-03T00:24:58;99222.38;;;12.59;46.34
34983;BME280;21187;50.976;13.720;2023-05-03T00:30:00;99226.25;;;12.58;46.62
34983;BME280;21187;50.976;13.720;2023-05-03T00:35:02;99226.91;;;12.55;46.47
34983;BME280;21187;50.976;13.720;2023-05-03T00:40:04;99224.56;;;12.65;46.37
34983;BME280;21187;50.976;13.720;2023-05-03T00:45:08;99220.63;;;12.63;46.16
34983;BME280;21187;50.976;13.720;2023-05-03T00:50:10;99222.09;;;12.60;46.49
34983;BME280;21187;50.976;13.720;2023-05-03T00:55:13;99213.53;;;12.49;46.63
34983;BME280;21187;50.976;13.720;2023-05-03T01:00:16;99219.19;;;12.44;46.45
34983;BME280;21187;50.976;13.720;2023-05-03T01:05:20;99219.44;;;12.39;46.31
34983;BME280;21187;50.976;13.720;2023-05-03T01:10:49;99215.75;;;12.23;46.49
34983;BME280;21187;50.976;13.720;2023-05-03T01:16:01;99217.41;;;12.48;46.01
34983;BME280;21187;50.976;13.720;2023-05-03T01:21:06;99206.13;;;12.25;46.61
34983;BME280;21187;50.976;13.720;2023-05-03T01:31:22;99210.09;;;12.15;46.69
34983;BME280;21187;50.976;13.720;2023-05-03T01:36:30;99206.25;;;11.95;46.88
34983;BME280;21187;50.976;13.720;2023-05-03T01:41:33;99208.84;;;11.92;47.00
34983;BME280;21187;50.976;13.720;2023-05-03T01:46:44;99209.78;;;11.96;46.78
34983;BME280;21187;50.976;13.720;2023-05-03T01:51:46;99221.25;;;11.93;46.83
34983;BME280;21187;50.976;13.720;2023-05-03T01:56:48;99211.06;;;11.90;46.51
34983;BME280;21187;50.976;13.720;2023-05-03T02:01:50;99213.34;;;11.88;46.59
34983;BME280;21187;50.976;13.720;2023-05-03T02:06:52;99212.59;;;11.78;46.07
34983;BME280;21187;50.976;13.720;2023-05-03T02:11:55;99215.97;;;11.75;46.24
34983;BME280;21187;50.976;13.720;2023-05-03T02:16:57;99207.84;;;11.75;45.81
34983;BME280;21187;50.976;13.720;2023-05-03T02:21:59;99206.25;;;11.74;45.89
34983;BME280;21187;50.976;13.720;2023-05-03T02:27:02;99205.78;;;11.72;45.34
34983;BME280;21187;50.976;13.720;2023-05-03T02:32:07;99208.91;;;11.62;45.34
34983;BME280;21187;50.976;13.720;2023-05-03T02:37:09;99210.22;;;11.56;45.45
34983;BME280;21187;50.976;13.720;2023-05-03T02:42:12;99205.59;;;11.35;45.47
34983;BME280;21187;50.976;13.720;2023-05-03T02:47:14;99216.16;;;11.28;45.51
34983;BME280;21187;50.976;13.720;2023-05-03T02:52:18;99219.59;;;11.37;45.22
34983;BME280;21187;50.976;13.720;2023-05-03T02:57:20;99219.97;;;11.27;45.60
34983;BME280;21187;50.976;13.720;2023-05-03T03:02:22;99228.19;;;11.18;45.50
34983;BME280;21187;50.976;13.720;2023-05-03T03:07:24;99227.09;;;11.10;45.58
34983;BME280;21187;50.976;13.720;2023-05-03T03:12:30;99227.44;;;11.09;45.47
34983;BME280;21187;50.976;13.720;2023-05-03T03:17:33;99244.03;;;11.07;45.63
34983;BME280;21187;50.976;13.720;2023-05-03T03:22:42;99245.78;;;11.03;45.67
34983;BME280;21187;50.976;13.720;2023-05-03T03:27:46;99251.53;;;11.02;45.59
34983;BME280;21187;50.976;13.720;2023-05-03T03:32:48;99245.66;;;10.99;45.45
34983;BME280;21187;50.976;13.720;2023-05-03T03:37:59;99244.38;;;10.97;45.76
34983;BME280;21187;50.976;13.720;2023-05-03T03:43:01;99250.16;;;10.87;45.29
34983;BME280;21187;50.976;13.720;2023-05-03T03:48:04;99248.56;;;10.86;45.85
34983;BME280;21187;50.976;13.720;2023-05-03T03:53:07;99266.41;;;10.87;45.74
34983;BME280;21187;50.976;13.720;2023-05-03T03:58:13;99268.53;;;10.81;45.52
34983;BME280;21187;50.976;13.720;2023-05-03T04:03:16;99270.91;;;10.82;46.09
34983;BME280;21187;50.976;13.720;2023-05-03T04:08:19;99276.94;;;10.79;45.92
34983;BME280;21187;50.976;13.720;2023-05-03T04:13:21;99290.97;;;10.81;45.93
34983;BME280;21187;50.976;13.720;2023-05-03T04:18:26;99299.28;;;10.85;46.15
34983;BME280;21187;50.976;13.720;2023-05-03T04:23:30;99308.50;;;10.84;46.22
34983;BME280;21187;50.976;13.720;2023-05-03T04:28:34;99314.25;;;10.82;46.24
34983;BME280;21187;50.976;13.720;2023-05-03T04:33:36;99313.31;;;10.78;46.00
34983;BME280;21187;50.976;13.720;2023-05-03T04:38:39;99322.72;;;10.72;46.30
34983;BME280;21187;50.976;13.720;2023-05-03T04:43:43;99320.81;;;10.73;46.15
34983;BME280;21187;50.976;13.720;2023-05-03T04:48:45;99321.63;;;10.73;46.03
34983;BME280;21187;50.976;13.720;2023-05-03T04:53:48;99328.31;;;10.67;46.33
34983;BME280;21187;50.976;13.720;2023-05-03T04:58:53;99334.88;;;10.57;46.41
34983;BME280;21187;50.976;13.720;2023-05-03T05:03:55;99331.34;;;10.57;46.32
34983;BME280;21187;50.976;13.720;2023-05-03T05:09:06;99337.56;;;10.66;45.81
34983;BME280;21187;50.976;13.720;2023-05-03T05:14:08;99338.66;;;10.74;45.51
34983;BME280;21187;50.976;13.720;2023-05-03T05:19:11;99344.88;;;10.74;45.77
34983;BME280;21187;50.976;13.720;2023-05-03T05:24:13;99351.25;;;10.78;45.02
34983;BME280;21187;50.976;13.720;2023-05-03T05:29:17;99365.91;;;10.77;45.17
34983;BME280;21187;50.976;13.720;2023-05-03T05:34:19;99360.00;;;10.84;45.06
34983;BME280;21187;50.976;13.720;2023-05-03T05:39:21;99363.16;;;10.95;45.07
34983;BME280;21187;50.976;13.720;2023-05-03T05:44:24;99374.94;;;10.99;44.47
34983;BME280;21187;50.976;13.720;2023-05-03T05:49:27;99366.03;;;10.98;44.22
34983;BME280;21187;50.976;13.720;2023-05-03T05:54:29;99371.44;;;10.98;44.34
34983;BME280;21187;50.976;13.720;2023-05-03T05:59:33;99382.28;;;10.98;44.36
34983;BME280;21187;50.976;13.720;2023-05-03T06:04:36;99376.38;;;11.05;43.79
34983;BME280;21187;50.976;13.720;2023-05-03T06:09:39;99383.06;;;11.17;43.73
34983;BME280;21187;50.976;13.720;2023-05-03T06:14:42;99383.16;;;11.29;43.84
34983;BME280;21187;50.976;13.720;2023-05-03T06:20:04;99385.22;;;11.32;43.67
34983;BME280;21187;50.976;13.720;2023-05-03T06:25:07;99384.88;;;11.42;43.67
34983;BME280;21187;50.976;13.720;2023-05-03T06:30:10;99381.66;;;11.49;43.53
34983;BME280;21187;50.976;13.720;2023-05-03T06:35:14;99391.53;;;11.54;43.65
34983;BME280;21187;50.976;13.720;2023-05-03T06:40:16;99392.75;;;11.65;43.36
34983;BME280;21187;50.976;13.720;2023-05-03T06:45:18;99386.28;;;11.78;43.29
34983;BME280;21187;50.976;13.720;2023-05-03T06:50:20;99383.44;;;12.05;42.97
34983;BME280;21187;50.976;13.720;2023-05-03T06:55:23;99386.41;;;12.42;42.60
34983;BME280;21187;50.976;13.720;2023-05-03T07:00:24;99392.88;;;12.49;42.51
34983;BME280;21187;50.976;13.720;2023-05-03T07:05:26;99395.00;;;12.65;42.26
34983;BME280;21187;50.976;13.720;2023-05-03T07:10:28;99382.59;;;12.76;42.25
34983;BME280;21187;50.976;13.720;2023-05-03T07:15:32;99384.91;;;12.99;41.78
34983;BME280;21187;50.976;13.720;2023-05-03T07:20:34;99386.78;;;13.20;41.71
34983;BME280;21187;50.976;13.720;2023-05-03T07:25:36;99391.63;;;13.47;41.52
34983;BME280;21187;50.976;13.720;2023-05-03T07:30:39;99387.75;;;13.61;40.59
34983;BME280;21187;50.976;13.720;2023-05-03T07:35:41;99375.97;;;13.69;40.42
34983;BME280;21187;50.976;13.720;2023-05-03T07:40:43;99387.50;;;13.91;38.94
34983;BME280;21187;50.976;13.720;2023-05-03T07:45:45;99376.59;;;14.15;39.24
34983;BME280;21187;50.976;13.720;2023-05-03T07:50:47;99381.28;;;14.43;39.04
34983;BME280;21187;50.976;13.720;2023-05-03T07:55:52;99369.69;;;14.46;39.27
34983;BME280;21187;50.976;13.720;2023-05-03T08:00:55;99376.22;;;14.58;38.74
34983;BME280;21187;50.976;13.720;2023-05-03T08:05:57;99371.31;;;14.76;38.67
34983;BME280;21187;50.976;13.720;2023-05-03T08:10:59;99375.16;;;15.03;38.51
34983;BME280;21187;50.976;13.720;2023-05-03T08:16:01;99363.09;;;15.20;38.07
34983;BME280;21187;50.976;13.720;2023-05-03T08:21:03;99367.50;;;15.25;38.18
34983;BME280;21187;50.976;13.720;2023-05-03T08:26:05;99363.53;;;15.22;38.52
34983;BME280;21187;50.976;13.720;2023-05-03T08:31:09;99361.94;;;15.53;37.78
34983;BME280;21187;50.976;13.720;2023-05-03T08:36:11;99364.31;;;15.87;37.37
34983;BME280;21187;50.976;13.720;2023-05-03T08:41:20;99365.97;;;15.75;37.35
34983;BME280;21187;50.976;13.720;2023-05-03T08:46:23;99367.75;;;15.52;36.65
34983;BME280;21187;50.976;13.720;2023-05-03T08:51:29;99373.47;;;15.46;36.79
34983;BME280;21187;50.976;13.720;2023-05-03T08:56:41;99371.28;;;15.68;36.56
34983;BME280;21187;50.976;13.720;2023-05-03T09:01:44;99366.53;;;15.81;36.44
34983;BME280;21187;50.976;13.720;2023-05-03T09:06:46;99371.78;;;15.90;36.12
34983;BME280;21187;50.976;13.720;2023-05-03T09:11:48;99367.69;;;15.48;35.53
34983;BME280;21187;50.976;13.720;2023-05-03T09:16:49;99368.13;;;15.34;36.10
34983;BME280;21187;50.976;13.720;2023-05-03T09:22:05;99362.75;;;15.54;35.92
34983;BME280;21187;50.976;13.720;2023-05-03T09:27:17;99362.00;;;15.89;35.16
34983;BME280;21187;50.976;13.720;2023-05-03T09:32:20;99365.31;;;16.14;35.21
34983;BME280;21187;50.976;13.720;2023-05-03T09:37:35;99362.34;;;16.23;35.15
34983;BME280;21187;50.976;13.720;2023-05-03T09:42:39;99368.41;;;16.52;34.98
34983;BME280;21187;50.976;13.720;2023-05-03T09:47:48;99361.06;;;16.75;33.92
34983;BME280;21187;50.976;13.720;2023-05-03T09:52:53;99358.88;;;16.85;34.09
34983;BME280;21187;50.976;13.720;2023-05-03T09:57:56;99353.94;;;17.13;34.12
34983;BME280;21187;50.976;13.720;2023-05-03T10:03:00;99355.03;;;17.09;33.52
34983;BME280;21187;50.976;13.720;2023-05-03T10:08:03;99352.84;;;16.56;33.43
34983;BME280;21187;50.976;13.720;2023-05-03T10:13:06;99344.38;;;16.61;33.86
34983;BME280;21187;50.976;13.720;2023-05-03T10:18:09;99343.22;;;16.42;32.68
34983;BME280;21187;50.976;13.720;2023-05-03T10:23:14;99343.22;;;16.42;33.03
34983;BME280;21187;50.976;13.720;2023-05-03T10:28:15;99340.78;;;16.37;32.94
34983;BME280;21187;50.976;13.720;2023-05-03T10:48:32;99324.81;;;16.82;32.82
34983;BME280;21187;50.976;13.720;2023-05-03T10:58:48;99325.31;;;16.88;32.34
34983;BME280;21187;50.976;13.720;2023-05-03T11:08:59;99319.13;;;17.37;32.24
34983;BME280;21187;50.976;13.720;2023-05-03T11:14:02;99324.72;;;17.44;31.94
34983;BME280;21187;50.976;13.720;2023-05-03T11:19:04;99321.72;;;17.53;31.66
34983;BME280;21187;50.976;13.720;2023-05-03T11:24:06;99320.03;;;17.45;31.68
34983;BME280;21187;50.976;13.720;2023-05-03T11:29:09;99314.03;;;17.62;31.75
34983;BME280;21187;50.976;13.720;2023-05-03T11:34:12;99310.03;;;17.56;31.53
34983;BME280;21187;50.976;13.720;2023-05-03T11:39:16;99318.75;;;17.66;31.64
34983;BME280;21187;50.976;13.720;2023-05-03T11:44:21;99312.72;;;17.79;31.39
34983;BME280;21187;50.976;13.720;2023-05-03T11:49:23;99321.00;;;17.87;31.16
34983;BME280;21187;50.976;13.720;2023-05-03T11:54:24;99318.41;;;17.94;30.81
34983;BME280;21187;50.976;13.720;2023-05-03T11:59:38;99322.19;;;17.86;31.05
34983;BME280;21187;50.976;13.720;2023-05-03T12:04:42;99315.13;;;17.85;30.93
34983;BME280;21187;50.976;13.720;2023-05-03T12:09:46;99315.22;;;17.92;30.55
34983;BME280;21187;50.976;13.720;2023-05-03T12:15:08;99310.19;;;17.94;30.44
34983;BME280;21187;50.976;13.720;2023-05-03T12:25:19;99316.41;;;17.91;30.45
34983;BME280;21187;50.976;13.720;2023-05-03T12:30:25;99298.78;;;17.92;30.31
34983;BME280;21187;50.976;13.720;2023-05-03T12:35:29;99310.00;;;18.10;30.19
34983;BME280;21187;50.976;13.720;2023-05-03T12:40:34;99295.19;;;18.15;29.91
34983;BME280;21187;50.976;13.720;2023-05-03T12:45:36;99295.91;;;18.11;30.07
34983;BME280;21187;50.976;13.720;2023-05-03T12:50:41;99289.03;;;18.25;30.33
34983;BME280;21187;50.976;13.720;2023-05-03T12:55:47;99272.00;;;18.42;29.86
34983;BME280;21187;50.976;13.720;2023-05-03T13:00:52;99273.69;;;18.54;30.15
34983;BME280;21187;50.976;13.720;2023-05-03T13:05:58;99268.22;;;18.58;30.31
34983;BME280;21187;50.976;13.720;2023-05-03T13:11:00;99265.81;;;18.49;29.84
34983;BME280;21187;50.976;13.720;2023-05-03T13:16:03;99258.66;;;18.41;30.08
34983;BME280;21187;50.976;13.720;2023-05-03T13:21:05;99266.56;;;18.50;29.95
34983;BME280;21187;50.976;13.720;2023-05-03T13:26:08;99265.41;;;18.51;29.94
34983;BME280;21187;50.976;13.720;2023-05-03T13:31:10;99258.06;;;18.62;29.67
34983;BME280;21187;50.976;13.720;2023-05-03T13:36:12;99250.31;;;18.68;29.87
34983;BME280;21187;50.976;13.720;2023-05-03T13:41:14;99240.09;;;18.68;29.76
34983;BME280;21187;50.976;13.720;2023-05-03T13:46:16;99257.81;;;18.74;29.68
34983;BME280;21187;50.976;13.720;2023-05-03T13:51:18;99244.09;;;18.74;29.53
34983;BME280;21187;50.976;13.720;2023-05-03T13:56:20;99237.75;;;18.67;29.39
34983;BME280;21187;50.976;13.720;2023-05-03T14:01:23;99225.59;;;18.68;29.44
34983;BME280;21187;50.976;13.720;2023-05-03T14:06:25;99234.16;;;18.59;29.23
34983;BME280;21187;50.976;13.720;2023-05-03T14:11:29;99219.56;;;18.51;29.13
34983;BME280;21187;50.976;13.720;2023-05-03T14:16:31;99223.47;;;18.50;29.30
34983;BME280;21187;50.976;13.720;2023-05-03T14:21:36;99228.47;;;18.03;29.40
34983;BME280;21187;50.976;13.720;2023-05-03T14:26:38;99233.84;;;17.96;29.71
34983;BME280;21187;50.976;13.720;2023-05-03T14:31:40;99237.84;;;18.02;29.79
34983;BME280;21187;50.976;13.720;2023-05-03T14:36:42;99224.16;;;18.02;29.84
34983;BME280;21187;50.976;13.720;2023-05-03T14:41:44;99220.66;;;18.05;29.93
34983;BME280;21187;50.976;13.720;2023-05-03T14:46:46;99227.66;;;17.99;30.01
34983;BME280;21187;50.976;13.720;2023-05-03T14:51:48;99224.53;;;18.01;29.87
34983;BME280;21187;50.976;13.720;2023-05-03T14:56:50;99225.03;;;17.79;30.13
34983;BME280;21187;50.976;13.720;2023-05-03T15:01:52;99220.38;;;17.84;30.11
34983;BME280;21187;50.976;13.720;2023-05-03T15:06:54;99225.88;;;17.84;30.12
34983;BME280;21187;50.976;13.720;2023-05-03T15:12:00;99219.13;;;17.77;30.37
34983;BME280;21187;50.976;13.720;2023-05-03T15:17:02;99215.19;;;17.75;30.41
34983;BME280;21187;50.976;13.720;2023-05-03T15:22:04;99218.53;;;17.61;30.25
34983;BME280;21187;50.976;13.720;2023-05-03T15:27:07;99213.88;;;17.65;30.38
34983;BME280;21187;50.976;13.720;2023-05-03T15:32:08;99224.41;;;17.63;30.42
34983;BME280;21187;50.976;13.720;2023-05-03T15:37:10;99209.47;;;17.57;30.39
34983;BME280;21187;50.976;13.720;2023-05-03T15:42:13;99205.09;;;17.49;30.23
34983;BME280;21187;50.976;13.720;2023-05-03T15:47:15;99212.56;;;17.25;30.67
34983;BME280;21187;50.976;13.720;2023-05-03T15:52:17;99203.19;;;17.26;30.63
34983;BME280;21187;50.976;13.720;2023-05-03T15:57:19;99196.66;;;17.34;30.49
34983;BME280;21187;50.976;13.720;2023-05-03T16:02:21;99194.75;;;17.38;30.54
34983;BME280;21187;50.976;13.720;2023-05-03T16:07:23;99198.34;;;17.42;30.36
34983;BME280;21187;50.976;13.720;2023-05-03T16:12:27;99197.81;;;17.33;30.50
34983;BME280;21187;50.976;13.720;2023-05-03T16:17:28;99187.66;;;17.34;30.48
34983;BME280;21187;50.976;13.720;2023-05-03T16:22:31;99185.28;;;17.32;30.62
34983;BME280;21187;50.976;13.720;2023-05-03T16:27:33;99178.34;;;17.11;30.89
34983;BME280;21187;50.976;13.720;2023-05-03T16:32:35;99169.19;;;17.00;31.04
34983;BME280;21187;50.976;13.720;2023-05-03T16:37:37;99168.50;;;17.07;30.83
34983;BME280;21187;50.976;13.720;2023-05-03T16:42:40;99151.84;;;17.16;30.70
34983;BME280;21187;50.976;13.720;2023-05-03T16:47:45;99145.28;;;17.24;30.51
34983;BME280;21187;50.976;13.720;2023-05-03T16:52:47;99155.50;;;17.27;30.60
34983;BME280;21187;50.976;13.720;2023-05-03T16:57:49;99161.81;;;17.31;30.58
34983;BME280;21187;50.976;13.720;2023-05-03T17:02:51;99156.31;;;17.31;30.66
34983;BME280;21187;50.976;13.720;2023-05-03T17:07:53;99155.44;;;17.23;30.89
34983;BME280;21187;50.976;13.720;2023-05-03T17:12:56;99152.34;;;17.25;30.80
34983;BME280;21187;50.976;13.720;2023-05-03T17:17:59;99150.75;;;17.24;30.94
34983;BME280;21187;50.976;13.720;2023-05-03T17:23:05;99151.53;;;17.24;30.98
34983;BME280;21187;50.976;13.720;2023-05-03T17:28:07;99153.00;;;17.18;31.05
34983;BME280;21187;50.976;13.720;2023-05-03T17:33:09;99156.88;;;17.13;31.27
34983;BME280;21187;50.976;13.720;2023-05-03T17:38:11;99156.34;;;17.04;31.21
34983;BME280;21187;50.976;13.720;2023-05-03T17:43:13;99148.47;;;16.99;31.34
34983;BME280;21187;50.976;13.720;2023-05-03T17:48:18;99157.25;;;16.89;31.23
34983;BME280;21187;50.976;13.720;2023-05-03T17:53:21;99158.69;;;16.79;31.46
34983;BME280;21187;50.976;13.720;2023-05-03T17:58:23;99155.47;;;16.73;31.74
34983;BME280;21187;50.976;13.720;2023-05-03T18:03:25;99160.91;;;16.70;31.68
34983;BME280;21187;50.976;13.720;2023-05-03T18:08:27;99161.56;;;16.63;31.84
34983;BME280;21187;50.976;13.720;2023-05-03T18:13:30;99159.13;;;16.58;32.07
34983;BME280;21187;50.976;13.720;2023-05-03T18:18:33;99181.69;;;16.51;31.88
34983;BME280;21187;50.976;13.720;2023-05-03T18:23:35;99176.75;;;16.37;31.98
34983;BME280;21187;50.976;13.720;2023-05-03T18:28:37;99189.88;;;16.28;32.25
34983;BME280;21187;50.976;13.720;2023-05-03T18:33:39;99192.03;;;16.19;32.50
34983;BME280;21187;50.976;13.720;2023-05-03T18:38:41;99187.16;;;16.08;33.00
34983;BME280;21187;50.976;13.720;2023-05-03T18:43:45;99175.25;;;15.97;33.39
34983;BME280;21187;50.976;13.720;2023-05-03T18:48:47;99188.06;;;15.93;33.55
34983;BME280;21187;50.976;13.720;2023-05-03T18:53:49;99190.13;;;15.80;34.10
34983;BME280;21187;50.976;13.720;2023-05-03T18:58:52;99193.88;;;15.56;34.08
34983;BME280;21187;50.976;13.720;2023-05-03T19:03:54;99191.44;;;15.31;34.38
34983;BME280;21187;50.976;13.720;2023-05-03T19:08:55;99201.75;;;15.22;34.61
34983;BME280;21187;50.976;13.720;2023-05-03T19:13:57;99209.88;;;15.02;34.68
34983;BME280;21187;50.976;13.720;2023-05-03T19:18:59;99208.22;;;14.81;35.17
34983;BME280;21187;50.976;13.720;2023-05-03T19:24:01;99200.81;;;14.66;35.01
34983;BME280;21187;50.976;13.720;2023-05-03T19:29:04;99208.63;;;14.52;35.61
34983;BME280;21187;50.976;13.720;2023-05-03T19:34:06;99196.28;;;14.26;35.81
34983;BME280;21187;50.976;13.720;2023-05-03T19:39:08;99198.88;;;14.06;36.11
34983;BME280;21187;50.976;13.720;2023-05-03T19:44:13;99196.00;;;13.87;36.68
34983;BME280;21187;50.976;13.720;2023-05-03T19:49:16;99189.38;;;13.72;36.72
34983;BME280;21187;50.976;13.720;2023-05-03T19:54:19;99199.25;;;13.64;36.65
34983;BME280;21187;50.976;13.720;2023-05-03T19:59:21;99206.63;;;13.63;36.91
34983;BME280;21187;50.976;13.720;2023-05-03T20:04:24;99199.16;;;13.60;36.85
34983;BME280;21187;50.976;13.720;2023-05-03T20:09:26;99210.72;;;13.57;36.66
34983;BME280;21187;50.976;13.720;2023-05-03T20:14:28;99207.47;;;13.52;36.82
34983;BME280;21187;50.976;13.720;2023-05-03T20:19:30;99212.47;;;13.37;37.00
34983;BME280;21187;50.976;13.720;2023-05-03T20:24:33;99206.34;;;13.15;37.43
34983;BME280;21187;50.976;13.720;2023-05-03T20:29:35;99202.50;;;12.92;37.83
34983;BME280;21187;50.976;13.720;2023-05-03T20:34:37;99206.34;;;12.66;38.74
34983;BME280;21187;50.976;13.720;2023-05-03T20:39:40;99205.66;;;12.57;38.90
34983;BME280;21187;50.976;13.720;2023-05-03T20:44:42;99200.78;;;12.62;38.84
34983;BME280;21187;50.976;13.720;2023-05-03T20:49:45;99191.38;;;12.60;38.91
34983;BME280;21187;50.976;13.720;2023-05-03T20:54:47;99200.91;;;12.54;39.13
34983;BME280;21187;50.976;13.720;2023-05-03T20:59:49;99204.38;;;12.42;39.47
34983;BME280;21187;50.976;13.720;2023-05-03T21:04:50;99201.97;;;12.28;39.82
34983;BME280;21187;50.976;13.720;2023-05-03T21:09:52;99193.25;;;12.22;39.73
34983;BME280;21187;50.976;13.720;2023-05-03T21:14:54;99199.00;;;12.21;39.86
34983;BME280;21187;50.976;13.720;2023-05-03T21:19:56;99196.50;;;12.15;40.14
34983;BME280;21187;50.976;13.720;2023-05-03T21:24:58;99188.63;;;12.02;39.94
34983;BME280;21187;50.976;13.720;2023-05-03T21:30:00;99182.88;;;12.03;40.29
34983;BME280;21187;50.976;13.720;2023-05-03T21:35:02;99179.16;;;12.08;39.95
34983;BME280;21187;50.976;13.720;2023-05-03T21:40:05;99176.44;;;12.08;39.64
34983;BME280;21187;50.976;13.720;2023-05-03T21:45:09;99177.81;;;12.14;39.82
34983;BME280;21187;50.976;13.720;2023-05-03T21:50:11;99173.53;;;12.13;39.74
34983;BME280;21187;50.976;13.720;2023-05-03T21:55:14;99179.41;;;11.94;39.86
34983;BME280;21187;50.976;13.720;2023-05-03T22:00:16;99182.63;;;11.96;40.14
34983;BME280;21187;50.976;13.720;2023-05-03T22:05:20;99178.69;;;11.85;40.15
34983;BME280;21187;50.976;13.720;2023-05-03T22:10:22;99187.03;;;11.79;40.11
34983;BME280;21187;50.976;13.720;2023-05-03T22:15:24;99178.31;;;11.74;40.19
34983;BME280;21187;50.976;13.720;2023-05-03T22:20:28;99175.41;;;11.58;40.32
34983;BME280;21187;50.976;13.720;2023-05-03T22:25:30;99177.28;;;11.45;40.86
34983;BME280;21187;50.976;13.720;2023-05-03T22:30:33;99172.75;;;11.28;41.03
34983;BME280;21187;50.976;13.720;2023-05-03T22:35:35;99170.75;;;11.16;41.37
34983;BME280;21187;50.976;13.720;2023-05-03T22:40:37;99182.50;;;10.99;41.34
34983;BME280;21187;50.976;13.720;2023-05-03T22:45:39;99175.88;;;10.88;41.52
34983;BME280;21187;50.976;13.720;2023-05-03T22:50:40;99176.59;;;10.67;42.41
34983;BME280;21187;50.976;13.720;2023-05-03T22:55:42;99168.25;;;10.33;43.21
34983;BME280;21187;50.976;13.720;2023-05-03T23:00:44;99164.97;;;10.10;43.79
34983;BME280;21187;50.976;13.720;2023-05-03T23:05:47;99164.97;;;10.10;43.25
34983;BME280;21187;50.976;13.720;2023-05-03T23:10:49;99162.41;;;10.05;44.11
34983;BME280;21187;50.976;13.720;2023-05-03T23:15:51;99161.47;;;9.92;44.56
34983;BME280;21187;50.976;13.720;2023-05-03T23:20:52;99164.50;;;9.91;44.89
34983;BME280;21187;50.976;13.720;2023-05-03T23:25:54;99160.56;;;9.79;45.00
34983;BME280;21187;50.976;13.720;2023-05-03T23:30:56;99161.03;;;9.73;45.14
34983;BME280;21187;50.976;13.720;2023-05-03T23:35:59;99157.19;;;9.74;44.64
34983;BME280;21187;50.976;13.720;2023-05-03T23:41:00;99150.22;;;9.64;45.15
34983;BME280;21187;50.976;13.720;2023-05-03T23:46:02;99150.22;;;9.55;45.68
34983;BME280;21187;50.976;13.720;2023-05-03T23:51:04;99145.44;;;9.43;45.75
34983;BME280;21187;50.976;13.720;2023-05-03T23:56:06;99137.81;;;9.37;46.00
